Time;durP1;ratioP1;P1;durP2;ratioP2;P2;SDS_P1;SDS_P2;PMS_P1;PMS_P2;Temp;Humidity;BMP_temperature;BMP_pressure;BME280_temperature;BME280_humidity;BME280_pressure;Samples;Min_cycle;Max_cycle;Signal;HPM_P1;HPM_P2
2024/02/09 00:01:14;;;;;;;6.90;5.43;;;12.40;99.90;;;;;;4975382;28;20423;-67
2024/02/09 00:03:40;;;;;;;6.30;5.70;;;12.40;99.90;;;;;;4992282;28;20436;-67
2024/02/09 00:06:08;;;;;;;10.03;7.00;;;12.30;99.90;;;;;;4993118;28;20855;-67
2024/02/09 00:08:37;;;;;;;9.20;5.03;;;12.30;99.90;;;;;;4992771;28;20183;-67
2024/02/09 00:11:07;;;;;;;5.57;4.93;;;12.40;99.90;;;;;;4992810;28;20471;-67
2024/02/09 00:13:34;;;;;;;8.20;5.30;;;12.50;99.90;;;;;;4992791;28;20417;-67
2024/02/09 00:16:01;;;;;;;6.00;5.37;;;12.50;99.90;;;;;;4993850;28;20460;-67
2024/02/09 00:18:27;;;;;;;7.97;5.33;;;12.50;99.90;;;;;;4993124;28;20478;-67
2024/02/09 00:20:53;;;;;;;8.30;4.63;;;12.50;99.90;;;;;;4991896;28;21096;-67
2024/02/09 00:23:18;;;;;;;7.20;6.00;;;12.60;99.90;;;;;;4992914;28;20179;-67
2024/02/09 00:25:44;;;;;;;5.37;4.87;;;12.50;99.90;;;;;;4992817;28;20198;-67
2024/02/09 00:28:11;;;;;;;7.50;5.57;;;12.50;99.90;;;;;;4992366;28;20234;-67
2024/02/09 00:30:41;;;;;;;5.60;5.07;;;12.60;99.90;;;;;;4991801;28;20607;-67
2024/02/09 00:33:10;;;;;;;6.47;4.70;;;12.60;99.90;;;;;;4993544;28;20418;-68
2024/02/09 00:35:39;;;;;;;9.70;5.60;;;12.40;99.90;;;;;;4990580;28;20890;-67
2024/02/09 00:38:05;;;;;;;7.90;5.27;;;12.30;99.90;;;;;;4992106;28;20430;-67
2024/02/09 00:40:33;;;;;;;8.77;5.40;;;12.40;99.90;;;;;;4993329;28;20421;-67
2024/02/09 00:43:01;;;;;;;6.47;5.87;;;12.40;99.90;;;;;;4992220;28;20433;-67
2024/02/09 00:45:30;;;;;;;8.83;5.60;;;12.50;99.90;;;;;;4992042;28;20427;-68
2024/02/09 00:47:57;;;;;;;6.63;5.80;;;12.40;99.90;;;;;;4991421;28;20452;-67
2024/02/09 00:50:23;;;;;;;10.03;6.23;;;12.30;99.90;;;;;;4993143;28;20518;-66
2024/02/09 00:52:51;;;;;;;6.60;5.70;;;12.40;99.90;;;;;;4991678;28;20472;-67
2024/02/09 00:55:17;;;;;;;6.40;5.20;;;12.30;99.90;;;;;;4992484;28;20430;-67
2024/02/09 00:57:44;;;;;;;6.33;5.73;;;12.40;99.90;;;;;;4991107;28;20497;-67
2024/02/09 01:00:14;;;;;;;11.47;6.30;;;12.40;99.90;;;;;;4993042;28;20440;-67
2024/02/09 01:02:41;;;;;;;7.87;5.30;;;12.40;99.90;;;;;;4991535;28;20786;-67
2024/02/09 01:05:13;;;;;;;9.00;5.80;;;12.40;99.90;;;;;;4992286;28;20895;-67
2024/02/09 01:07:40;;;;;;;7.20;5.40;;;12.40;99.90;;;;;;4991534;28;20775;-66
2024/02/09 01:10:07;;;;;;;9.53;6.23;;;12.40;99.90;;;;;;4992054;28;20509;-67
2024/02/09 02:45:42;;;;;;;7.17;4.43;;;12.30;99.90;;;;;;4994425;28;20554;-67
2024/02/09 03:04:33;;;;;;;9.63;5.70;;;12.00;99.90;;;;;;4994514;28;20458;-67
2024/02/09 03:06:59;;;;;;;6.07;5.23;;;11.90;99.90;;;;;;4976205;28;20435;-67
2024/02/09 03:09:25;;;;;;;6.93;6.33;;;11.80;99.90;;;;;;4994965;28;20334;-67
2024/02/09 03:11:50;;;;;;;8.50;5.50;;;11.80;99.90;;;;;;4993138;28;20180;-67
2024/02/09 03:14:16;;;;;;;6.50;6.00;;;11.90;99.90;;;;;;4994011;28;20188;-66
2024/02/09 03:16:42;;;;;;;8.77;5.63;;;11.90;99.90;;;;;;4976822;28;20248;-67
2024/02/09 03:19:08;;;;;;;8.87;5.90;;;11.80;99.90;;;;;;4993824;28;20175;-67
2024/02/09 03:21:36;;;;;;;10.10;6.17;;;11.90;99.90;;;;;;4994260;28;20176;-68
2024/02/09 03:24:02;;;;;;;8.60;6.67;;;12.00;99.90;;;;;;4993987;28;20180;-67
2024/02/09 03:26:28;;;;;;;5.73;5.23;;;12.10;99.90;;;;;;4994808;28;20434;-67
2024/02/09 03:28:55;;;;;;;10.10;6.37;;;12.00;99.90;;;;;;4993876;28;20864;-66
2024/02/09 03:31:22;;;;;;;7.47;5.73;;;12.00;99.90;;;;;;4993995;28;20189;-67
2024/02/09 03:33:52;;;;;;;12.00;6.43;;;12.00;99.90;;;;;;4992473;28;20463;-67
2024/02/09 03:36:20;;;;;;;10.00;5.70;;;11.90;99.90;;;;;;4994794;28;20405;-67
2024/02/09 03:38:47;;;;;;;6.17;5.57;;;11.90;99.90;;;;;;4993801;28;20459;-67
2024/02/09 03:41:13;;;;;;;7.37;6.17;;;12.00;99.90;;;;;;4993437;28;20471;-67
2024/02/09 03:43:39;;;;;;;9.13;5.50;;;12.10;99.90;;;;;;4994477;28;20429;-67
2024/02/09 03:46:05;;;;;;;6.63;5.27;;;12.00;99.90;;;;;;4993226;28;20182;-67
2024/02/09 03:48:32;;;;;;;6.23;5.43;;;11.90;99.90;;;;;;4993127;28;20762;-67
2024/02/09 03:50:57;;;;;;;5.70;5.30;;;11.90;99.90;;;;;;4992606;28;20575;-67
2024/02/09 03:53:23;;;;;;;5.53;5.03;;;11.90;99.90;;;;;;4994227;28;20547;-67
2024/02/09 03:55:49;;;;;;;6.03;5.43;;;11.90;99.90;;;;;;4992341;28;20216;-67
2024/02/09 03:58:17;;;;;;;7.30;5.30;;;11.80;99.90;;;;;;4976180;28;20181;-67
2024/02/09 04:00:43;;;;;;;6.03;5.20;;;11.80;99.90;;;;;;4993807;28;20226;-67
2024/02/09 04:03:09;;;;;;;8.10;5.03;;;11.70;99.90;;;;;;4992498;28;20433;-67
2024/02/09 04:05:36;;;;;;;5.03;4.60;;;11.80;99.90;;;;;;4993577;28;20938;-67
2024/02/09 04:08:06;;;;;;;5.37;4.90;;;11.90;99.90;;;;;;4975136;28;20192;-67
2024/02/09 04:10:31;;;;;;;7.83;5.57;;;11.80;99.90;;;;;;4993101;28;20526;-67
2024/02/09 04:12:58;;;;;;;5.60;5.10;;;11.90;99.90;;;;;;4991816;28;20818;-67
2024/02/09 04:15:24;;;;;;;8.43;4.83;;;11.90;99.90;;;;;;4976638;28;20203;-67
2024/02/09 04:17:51;;;;;;;4.83;4.40;;;11.90;99.90;;;;;;4992277;28;20513;-66
2024/02/09 04:20:17;;;;;;;5.47;4.87;;;11.90;99.90;;;;;;4993558;28;20434;-67
2024/02/09 04:22:43;;;;;;;5.60;5.20;;;11.80;99.90;;;;;;4993684;28;20424;-67
2024/02/09 04:25:09;;;;;;;5.37;4.93;;;11.90;99.90;;;;;;4992566;28;20186;-67
2024/02/09 04:27:36;;;;;;;5.50;5.00;;;11.90;99.90;;;;;;4993200;28;20502;-67
2024/02/09 04:30:02;;;;;;;4.73;4.33;;;11.80;99.90;;;;;;4992631;28;20494;-67
2024/02/09 04:32:29;;;;;;;4.77;4.50;;;11.90;99.90;;;;;;4992975;28;20466;-67
2024/02/09 04:34:55;;;;;;;4.77;4.40;;;11.90;99.90;;;;;;4973930;28;20435;-67
2024/02/09 04:37:21;;;;;;;4.40;4.10;;;12.00;99.90;;;;;;4993263;28;20438;-67
2024/02/09 04:39:49;;;;;;;6.90;4.23;;;12.00;99.90;;;;;;4992407;28;20548;-67
2024/02/09 04:42:15;;;;;;;4.63;4.33;;;11.90;99.90;;;;;;4993010;28;20576;-67
2024/02/09 04:44:42;;;;;;;4.00;3.70;;;11.90;99.90;;;;;;4975978;28;20419;-67
2024/02/09 04:47:08;;;;;;;4.53;4.23;;;12.00;99.90;;;;;;4992050;28;20187;-67
2024/02/09 04:49:34;;;;;;;3.70;3.53;;;11.90;99.90;;;;;;4993365;28;20893;-67
2024/02/09 04:52:00;;;;;;;3.90;3.60;;;11.90;99.90;;;;;;4992170;28;20541;-67
2024/02/09 04:54:26;;;;;;;3.77;3.20;;;11.90;99.90;;;;;;4993194;28;20538;-66
2024/02/09 04:56:53;;;;;;;5.43;5.13;;;11.90;99.90;;;;;;4975005;28;20420;-66
2024/02/09 04:59:19;;;;;;;3.90;3.60;;;11.90;99.90;;;;;;4992574;28;20242;-67
2024/02/09 05:01:44;;;;;;;3.97;3.60;;;11.80;99.90;;;;;;4992849;28;20429;-68
2024/02/09 05:04:17;;;;;;;3.57;3.37;;;11.90;99.90;;;;;;4991592;28;20179;-67
2024/02/09 05:06:42;;;;;;;3.63;3.43;;;11.80;99.90;;;;;;4993027;28;20212;-67
2024/02/09 05:09:11;;;;;;;3.93;3.63;;;11.70;99.90;;;;;;4992152;28;20439;-67
2024/02/09 05:11:38;;;;;;;3.53;3.33;;;11.80;99.90;;;;;;4992552;28;20206;-67
2024/02/09 05:14:07;;;;;;;2.90;2.70;;;11.80;99.90;;;;;;4975004;28;20485;-66
2024/02/09 05:16:36;;;;;;;3.87;2.87;;;11.90;99.90;;;;;;4992490;28;20908;-67
2024/02/09 05:19:02;;;;;;;2.80;2.20;;;11.90;99.90;;;;;;4992410;28;20410;-67
2024/02/09 05:21:28;;;;;;;4.13;2.57;;;11.90;99.90;;;;;;4992658;28;20432;-67
2024/02/09 05:23:55;;;;;;;3.07;2.97;;;11.80;99.90;;;;;;4992162;28;20183;-66
2024/02/09 05:26:20;;;;;;;3.90;3.60;;;11.80;99.90;;;;;;4992079;28;20434;-66
2024/02/09 05:28:48;;;;;;;2.63;2.43;;;11.80;99.90;;;;;;4992765;28;20396;-67
2024/02/09 05:31:19;;;;;;;4.60;4.30;;;11.80;99.90;;;;;;4992017;28;20207;-67
2024/02/09 05:33:46;;;;;;;3.10;2.80;;;11.80;99.90;;;;;;4992038;28;20434;-67
2024/02/09 05:36:25;;;;;;;2.83;2.60;;;11.90;99.90;;;;;;4991968;28;20848;-67
2024/02/09 05:38:52;;;;;;;3.90;3.60;;;11.70;99.90;;;;;;4991620;28;20444;-66
2024/02/09 05:41:19;;;;;;;2.87;2.63;;;11.80;99.90;;;;;;4992310;28;20449;-66
2024/02/09 05:43:53;;;;;;;3.20;3.10;;;11.80;99.90;;;;;;4992473;28;20424;-67
2024/02/09 05:46:19;;;;;;;3.90;3.70;;;11.70;99.90;;;;;;4996183;28;20503;-67
2024/02/09 05:48:45;;;;;;;4.73;3.77;;;11.80;99.90;;;;;;4996047;28;20420;-67
2024/02/09 05:51:13;;;;;;;3.10;2.90;;;11.80;99.90;;;;;;4995705;28;20455;-67
2024/02/09 05:53:42;;;;;;;5.53;3.03;;;11.90;99.90;;;;;;4996451;28;20418;-67
2024/02/09 05:56:21;;;;;;;4.70;3.10;;;11.70;99.90;;;;;;4995526;28;20864;-67
2024/02/09 05:58:47;;;;;;;2.93;2.60;;;11.80;99.90;;;;;;4995562;28;20406;-68
2024/02/09 06:01:14;;;;;;;5.00;4.30;;;11.80;99.90;;;;;;4995090;28;20445;-67
2024/02/09 06:03:43;;;;;;;4.27;3.60;;;11.80;99.90;;;;;;4995592;28;20433;-67
2024/02/09 06:06:13;;;;;;;2.80;2.60;;;11.80;99.90;;;;;;4978024;28;20410;-68
2024/02/09 06:08:39;;;;;;;2.80;2.70;;;11.80;99.90;;;;;;4995816;28;20420;-67
2024/02/09 06:11:05;;;;;;;3.30;3.00;;;11.70;99.90;;;;;;4994771;28;20891;-67
2024/02/09 06:13:31;;;;;;;2.80;2.70;;;11.70;99.90;;;;;;4995905;28;20195;-67
2024/02/09 06:16:00;;;;;;;3.60;3.00;;;11.60;99.90;;;;;;4994885;28;20431;-67
2024/02/09 06:18:27;;;;;;;3.17;2.97;;;11.70;99.90;;;;;;4995878;28;20473;-67
2024/02/09 06:20:54;;;;;;;6.47;2.80;;;11.70;99.90;;;;;;4991715;28;20425;-67
2024/02/09 06:23:23;;;;;;;3.33;3.13;;;11.70;99.90;;;;;;4978325;28;20455;-66
2024/02/09 06:25:49;;;;;;;3.50;3.40;;;11.60;99.90;;;;;;4995989;28;20761;-67
2024/02/09 06:28:16;;;;;;;4.13;3.83;;;11.60;99.90;;;;;;4994217;28;20426;-66
2024/02/09 06:30:43;;;;;;;4.23;3.87;;;11.50;99.90;;;;;;4994263;28;20459;-66
2024/02/09 06:33:09;;;;;;;3.60;3.30;;;11.60;99.90;;;;;;4992651;28;20536;-67
2024/02/09 06:35:35;;;;;;;3.20;2.93;;;11.70;99.90;;;;;;4994987;28;20427;-72
2024/02/09 06:38:01;;;;;;;2.80;2.70;;;11.60;99.90;;;;;;4976950;28;20922;-68
2024/02/09 06:40:27;;;;;;;3.20;3.00;;;11.50;99.90;;;;;;4996059;28;20176;-69
2024/02/09 06:42:52;;;;;;;2.67;2.57;;;11.50;99.90;;;;;;4995667;28;20221;-69
2024/02/09 06:45:18;;;;;;;3.03;2.93;;;11.60;99.90;;;;;;4994324;28;20636;-69
2024/02/09 06:47:44;;;;;;;3.07;2.73;;;11.60;99.90;;;;;;4977124;28;20212;-69
2024/02/09 06:50:10;;;;;;;2.80;2.70;;;11.60;99.90;;;;;;4994264;28;20739;-71
2024/02/09 06:52:40;;;;;;;2.63;2.53;;;11.60;99.90;;;;;;4995559;28;20522;-67
2024/02/09 06:55:11;;;;;;;3.23;3.10;;;11.60;99.90;;;;;;4991410;28;20427;-73
2024/02/09 06:57:43;;;;;;;2.20;2.10;;;11.60;99.90;;;;;;4994501;28;20425;-73
2024/02/09 07:00:13;;;;;;;2.03;1.70;;;11.70;99.90;;;;;;4993882;28;20406;-68
2024/02/09 07:02:39;;;;;;;3.17;2.80;;;11.60;99.90;;;;;;4977354;28;20425;-66
2024/02/09 07:05:14;;;;;;;2.50;2.30;;;11.70;99.90;;;;;;4966303;28;20519;-66
2024/02/09 07:07:43;;;;;;;3.90;3.70;;;11.60;99.90;;;;;;4975846;28;20410;-66
2024/02/09 07:10:13;;;;;;;3.43;3.33;;;11.70;99.90;;;;;;4985117;28;20454;-68
2024/02/09 07:12:40;;;;;;;2.87;2.70;;;11.80;99.90;;;;;;4994863;28;20831;-68
2024/02/09 07:15:06;;;;;;;2.80;2.60;;;11.80;99.90;;;;;;4994232;28;20492;-66
2024/02/09 07:17:34;;;;;;;2.40;2.30;;;11.60;99.90;;;;;;4994808;28;20467;-66
2024/02/09 07:20:03;;;;;;;2.90;2.70;;;11.70;99.90;;;;;;4994102;28;20513;-69
2024/02/09 07:22:29;;;;;;;2.63;2.53;;;11.60;99.90;;;;;;4994591;28;20437;-66
2024/02/09 07:24:55;;;;;;;3.60;3.40;;;11.70;99.90;;;;;;4992880;28;20446;-67
2024/02/09 07:27:21;;;;;;;3.53;3.30;;;11.80;99.90;;;;;;4994056;28;20419;-66
2024/02/09 07:29:48;;;;;;;5.03;4.73;;;11.70;99.90;;;;;;4994420;28;20246;-66
2024/02/09 07:32:14;;;;;;;3.37;3.17;;;11.80;99.90;;;;;;4993631;28;20446;-66
2024/02/09 07:34:39;;;;;;;4.50;4.30;;;11.90;99.90;;;;;;4977288;28;20411;-66
2024/02/09 07:37:05;;;;;;;3.53;3.20;;;11.90;99.90;;;;;;4975354;28;20435;-66
2024/02/09 07:39:32;;;;;;;3.57;3.33;;;11.90;99.90;;;;;;4994278;28;20267;-66
2024/02/09 07:41:58;;;;;;;3.17;2.93;;;12.00;99.90;;;;;;4992158;28;20172;-66
2024/02/09 07:44:26;;;;;;;3.93;3.60;;;12.00;99.90;;;;;;4993964;28;20429;-66
2024/02/09 07:46:54;;;;;;;3.90;3.70;;;11.90;99.90;;;;;;4992914;28;20433;-67
2024/02/09 07:49:22;;;;;;;3.83;3.10;;;11.90;99.90;;;;;;4973396;28;21079;-66
2024/02/09 07:51:49;;;;;;;4.40;4.10;;;12.00;99.90;;;;;;4991809;28;20431;-67
2024/02/09 07:54:14;;;;;;;4.27;3.97;;;12.00;99.90;;;;;;4993091;28;20419;-67
2024/02/09 07:56:40;;;;;;;4.30;4.07;;;12.10;99.90;;;;;;4974413;28;20519;-66
2024/02/09 07:59:06;;;;;;;4.30;4.00;;;12.10;99.90;;;;;;4992553;28;20217;-65
2024/02/09 08:01:32;;;;;;;3.40;3.30;;;12.10;99.90;;;;;;4994344;28;20289;-65
2024/02/09 08:03:58;;;;;;;3.23;3.03;;;12.10;99.90;;;;;;4976690;28;20177;-65
2024/02/09 08:06:24;;;;;;;3.63;3.33;;;12.10;99.90;;;;;;4992586;28;20185;-65
2024/02/09 08:08:52;;;;;;;3.07;2.87;;;12.10;99.90;;;;;;4990909;28;20923;-66
2024/02/09 08:11:22;;;;;;;4.17;3.87;;;12.20;99.90;;;;;;4991083;28;20485;-65
2024/02/09 08:13:52;;;;;;;3.40;3.10;;;12.30;99.90;;;;;;4992965;28;20420;-65
2024/02/09 08:16:18;;;;;;;4.17;3.87;;;12.30;99.90;;;;;;4991856;28;20416;-65
2024/02/09 08:18:44;;;;;;;5.73;4.03;;;12.20;99.90;;;;;;4993089;28;20471;-66
2024/02/09 08:21:10;;;;;;;4.10;3.70;;;12.20;99.90;;;;;;4990991;28;20419;-67
2024/02/09 08:23:35;;;;;;;4.37;4.13;;;12.20;99.90;;;;;;4992329;28;20510;-66
2024/02/09 08:26:01;;;;;;;4.67;4.27;;;12.20;99.90;;;;;;4992068;28;20700;-65
2024/02/09 08:28:27;;;;;;;4.10;3.90;;;12.20;99.90;;;;;;4991148;28;20176;-65
2024/02/09 08:30:52;;;;;;;4.00;3.70;;;12.10;99.90;;;;;;4974671;28;20232;-65
2024/02/09 08:33:19;;;;;;;3.87;3.57;;;12.20;99.90;;;;;;4992520;28;20173;-66
2024/02/09 08:35:45;;;;;;;5.07;4.77;;;12.30;99.90;;;;;;4993616;28;20168;-65
2024/02/09 08:38:11;;;;;;;4.00;3.70;;;12.40;99.90;;;;;;4974914;28;20998;-66
2024/02/09 08:40:36;;;;;;;4.50;4.20;;;12.30;99.90;;;;;;4993733;28;20233;-65
2024/02/09 08:43:02;;;;;;;4.17;3.87;;;12.40;99.90;;;;;;4993294;28;20183;-65
2024/02/09 08:45:28;;;;;;;5.23;3.93;;;12.40;99.90;;;;;;4993685;28;20182;-65
2024/02/09 08:47:54;;;;;;;4.63;4.43;;;12.30;99.90;;;;;;4993835;28;20176;-65
2024/02/09 08:50:19;;;;;;;4.60;4.30;;;12.30;99.90;;;;;;4992992;28;20297;-65
2024/02/09 08:52:46;;;;;;;4.90;4.50;;;12.30;99.90;;;;;;4993592;28;20415;-65
2024/02/09 08:55:12;;;;;;;4.47;4.07;;;12.30;99.90;;;;;;4991529;28;20646;-65
2024/02/09 08:57:37;;;;;;;5.00;4.50;;;12.30;99.90;;;;;;4993602;28;20403;-66
2024/02/09 09:00:05;;;;;;;4.57;4.23;;;12.30;99.90;;;;;;4992856;28;20176;-65
2024/02/09 09:02:31;;;;;;;4.13;3.93;;;12.30;99.90;;;;;;4993439;28;20262;-66
2024/02/09 09:04:57;;;;;;;4.73;4.33;;;12.30;99.90;;;;;;4993053;28;21007;-66
2024/02/09 09:07:23;;;;;;;4.37;4.00;;;12.20;99.90;;;;;;4992007;28;20230;-65
2024/02/09 09:09:49;;;;;;;3.90;3.37;;;12.20;99.90;;;;;;4993004;28;20543;-67
2024/02/09 09:12:14;;;;;;;6.10;3.90;;;12.30;99.90;;;;;;4992169;28;20427;-70
2024/02/09 09:14:40;;;;;;;3.90;3.60;;;12.30;99.90;;;;;;4992687;28;20261;-70
2024/02/09 09:17:06;;;;;;;3.90;3.60;;;12.40;99.90;;;;;;4988335;28;21419;-70
2024/02/09 09:19:32;;;;;;;3.93;3.73;;;12.60;99.90;;;;;;4991523;28;20440;-71
2024/02/09 09:21:57;;;;;;;3.80;3.60;;;12.70;99.90;;;;;;4991375;28;20525;-70
2024/02/09 09:24:23;;;;;;;4.50;3.60;;;12.90;99.90;;;;;;4988494;28;20183;-70
2024/02/09 09:26:49;;;;;;;4.60;4.30;;;12.90;99.90;;;;;;4970430;28;20205;-70
2024/02/09 09:29:15;;;;;;;4.53;4.23;;;12.90;99.90;;;;;;4988093;28;20194;-70
2024/02/09 09:31:41;;;;;;;4.57;4.17;;;13.00;99.90;;;;;;4985345;28;20191;-71
2024/02/09 09:34:08;;;;;;;10.20;8.80;;;13.10;99.90;;;;;;4970439;28;20833;-70
2024/02/09 09:36:34;;;;;;;4.53;4.20;;;13.20;99.90;;;;;;4990804;28;20472;-70
2024/02/09 09:39:02;;;;;;;4.23;3.83;;;13.30;99.90;;;;;;4991440;28;20464;-71
2024/02/09 09:41:28;;;;;;;4.07;3.77;;;13.40;99.90;;;;;;4983157;28;20426;-71
2024/02/09 09:43:55;;;;;;;5.13;4.73;;;13.30;99.90;;;;;;4988655;28;20924;-69
2024/02/09 09:46:22;;;;;;;8.13;7.33;;;13.10;99.90;;;;;;4973184;28;20440;-69
2024/02/09 09:48:55;;;;;;;6.77;6.13;;;13.30;99.90;;;;;;4991117;28;20437;-69
2024/02/09 09:51:22;;;;;;;6.40;5.80;;;13.50;99.90;;;;;;4974359;28;20490;-69
2024/02/09 09:53:52;;;;;;;10.63;8.70;;;13.50;99.90;;;;;;4992596;28;20407;-70
2024/02/09 09:56:19;;;;;;;8.87;8.00;;;13.70;99.90;;;;;;4983535;28;20426;-68
2024/02/09 09:58:45;;;;;;;4.60;4.20;;;13.80;99.90;;;;;;4983754;28;20923;-67
2024/02/09 10:01:12;;;;;;;7.90;5.50;;;13.90;99.90;;;;;;4983262;28;20469;-67
2024/02/09 10:03:42;;;;;;;5.60;4.07;;;13.90;99.90;;;;;;4963959;28;20760;-67
2024/02/09 10:06:08;;;;;;;6.07;4.17;;;14.10;99.90;;;;;;4989435;28;20423;-67
2024/02/09 10:08:35;;;;;;;5.37;4.87;;;14.10;99.90;;;;;;4992733;28;20408;-67
2024/02/09 10:11:08;;;;;;;5.60;5.10;;;14.10;99.90;;;;;;4992315;28;20839;-67
2024/02/09 10:13:34;;;;;;;4.87;4.40;;;14.20;99.90;;;;;;4984426;28;20421;-67
2024/02/09 10:16:03;;;;;;;5.20;4.27;;;14.30;99.90;;;;;;4982077;28;20499;-68
2024/02/09 10:18:36;;;;;;;4.10;3.77;;;14.30;99.90;;;;;;4989147;28;20602;-67
2024/02/09 10:21:05;;;;;;;5.07;4.67;;;14.20;99.90;;;;;;4992313;28;20432;-67
2024/02/09 10:23:32;;;;;;;5.90;5.40;;;14.20;99.90;;;;;;4991862;28;20970;-69
2024/02/09 10:26:03;;;;;;;6.40;5.80;;;14.30;99.90;;;;;;4991419;28;20915;-68
2024/02/09 10:28:30;;;;;;;11.03;7.80;;;14.20;99.90;;;;;;4992148;28;20385;-70
2024/02/09 10:30:59;;;;;;;6.17;5.57;;;14.30;99.90;;;;;;4992421;28;20478;-69
2024/02/09 10:33:25;;;;;;;4.80;4.50;;;14.40;99.90;;;;;;4995030;28;20758;-69
2024/02/09 10:35:59;;;;;;;4.67;4.23;;;14.40;99.90;;;;;;4995963;28;20413;-69
2024/02/09 10:38:27;;;;;;;4.73;4.27;;;14.30;99.90;;;;;;4995572;28;20403;-69
2024/02/09 10:40:56;;;;;;;8.10;7.30;;;14.40;99.90;;;;;;4996126;28;20752;-69
2024/02/09 10:43:27;;;;;;;3.50;3.30;;;14.40;99.90;;;;;;4995778;28;20430;-69
2024/02/09 10:45:54;;;;;;;4.80;4.50;;;14.30;99.90;;;;;;4996056;28;20398;-69
2024/02/09 10:48:22;;;;;;;4.40;4.00;;;14.40;99.90;;;;;;4994793;28;20433;-69
2024/02/09 10:50:50;;;;;;;6.67;4.90;;;14.30;99.90;;;;;;4995371;28;20479;-69
2024/02/09 10:53:25;;;;;;;5.10;4.70;;;14.30;99.90;;;;;;4994684;28;20423;-68
2024/02/09 10:56:03;;;;;;;5.00;4.13;;;14.20;99.90;;;;;;4994549;28;20555;-69
2024/02/09 10:58:33;;;;;;;4.00;3.80;;;14.20;99.90;;;;;;4995144;28;20437;-69
2024/02/09 11:00:59;;;;;;;13.00;11.37;;;14.20;99.90;;;;;;4995601;28;20919;-70
2024/02/09 11:03:26;;;;;;;4.37;3.90;;;14.10;99.90;;;;;;4994947;28;20464;-69
2024/02/09 11:05:52;;;;;;;13.40;11.00;;;14.20;99.90;;;;;;4995847;28;20449;-70
2024/02/09 11:08:18;;;;;;;5.60;5.07;;;14.20;99.90;;;;;;4994929;28;20409;-69
2024/02/09 11:10:57;;;;;;;4.50;4.10;;;14.30;99.90;;;;;;4995200;28;20455;-69
2024/02/09 11:13:23;;;;;;;6.13;5.60;;;14.10;99.90;;;;;;4994907;28;20395;-69
2024/02/09 11:16:01;;;;;;;6.47;5.30;;;14.10;99.90;;;;;;4977986;28;20416;-69
2024/02/09 11:18:31;;;;;;;5.40;4.67;;;14.30;99.90;;;;;;4994204;28;20558;-69
2024/02/09 11:21:04;;;;;;;6.73;6.13;;;14.40;99.90;;;;;;4995464;28;20497;-70
2024/02/09 11:23:40;;;;;;;5.57;5.00;;;14.30;99.90;;;;;;4994670;28;20518;-69
2024/02/09 11:26:13;;;;;;;4.73;4.43;;;14.30;99.90;;;;;;4993584;28;20485;-69
2024/02/09 11:28:43;;;;;;;5.37;4.70;;;14.30;99.90;;;;;;4995143;28;20396;-70
2024/02/09 11:31:13;;;;;;;5.97;5.43;;;14.40;99.90;;;;;;4995586;28;20433;-69
2024/02/09 11:33:41;;;;;;;7.47;6.77;;;14.40;99.90;;;;;;4995096;28;20412;-70
2024/02/09 11:36:07;;;;;;;6.77;6.27;;;14.20;99.90;;;;;;4995327;28;20513;-70
2024/02/09 11:38:36;;;;;;;11.97;10.73;;;14.00;99.90;;;;;;4977159;28;20404;-71
2024/02/09 11:41:02;;;;;;;5.83;5.43;;;14.00;99.90;;;;;;4994955;28;20407;-70
2024/02/09 11:43:29;;;;;;;5.23;4.47;;;14.10;99.90;;;;;;4994013;28;20416;-70
2024/02/09 11:45:55;;;;;;;4.87;4.60;;;13.90;99.90;;;;;;4993133;28;20241;-71
2024/02/09 11:48:23;;;;;;;6.03;5.10;;;13.90;99.90;;;;;;4993579;28;20437;-70
2024/02/09 11:50:49;;;;;;;5.40;5.00;;;13.80;99.90;;;;;;4992560;28;20554;-69
2024/02/09 11:53:15;;;;;;;5.93;5.27;;;13.70;99.90;;;;;;4992725;28;20953;-69
2024/02/09 11:55:42;;;;;;;5.10;4.70;;;13.50;99.90;;;;;;4993780;28;20438;-71
2024/02/09 11:58:10;;;;;;;6.00;5.57;;;13.40;99.90;;;;;;4994367;28;20430;-70
2024/02/09 12:00:38;;;;;;;6.30;5.80;;;13.30;99.90;;;;;;4993889;28;20456;-70
2024/02/09 12:03:04;;;;;;;9.00;6.40;;;13.20;99.90;;;;;;4994487;28;20766;-71
2024/02/09 12:05:31;;;;;;;6.73;6.13;;;13.20;99.90;;;;;;4993891;28;20399;-70
2024/02/09 12:07:57;;;;;;;6.93;5.80;;;13.10;99.90;;;;;;4994611;28;20773;-71
2024/02/09 12:10:23;;;;;;;7.70;6.00;;;13.20;99.90;;;;;;4993730;28;20576;-70
2024/02/09 12:12:49;;;;;;;6.87;6.30;;;13.10;99.90;;;;;;4994361;28;20440;-71
2024/02/09 12:15:19;;;;;;;7.50;5.27;;;13.10;99.90;;;;;;4992824;28;20177;-70
2024/02/09 12:17:45;;;;;;;6.90;6.50;;;13.30;99.90;;;;;;4993667;28;20487;-70
2024/02/09 12:20:14;;;;;;;6.27;5.77;;;13.40;99.90;;;;;;4994485;28;20429;-71
2024/02/09 12:22:41;;;;;;;6.17;5.70;;;13.30;99.90;;;;;;4994111;28;20434;-70
2024/02/09 12:25:09;;;;;;;6.10;5.67;;;13.20;99.90;;;;;;4992954;28;20425;-71
2024/02/09 12:27:35;;;;;;;5.70;5.20;;;13.40;99.90;;;;;;4993389;28;20422;-69
2024/02/09 12:30:11;;;;;;;5.67;5.20;;;13.60;99.90;;;;;;4992064;28;20468;-68
2024/02/09 12:32:37;;;;;;;5.00;4.70;;;13.70;99.90;;;;;;4992324;28;20173;-67
2024/02/09 12:35:03;;;;;;;4.93;4.63;;;13.90;99.90;;;;;;4991480;28;20776;-68
2024/02/09 12:37:29;;;;;;;5.27;4.80;;;14.00;99.90;;;;;;4992980;28;20423;-68
2024/02/09 12:39:55;;;;;;;5.43;5.00;;;14.00;99.90;;;;;;4993049;28;20912;-68
2024/02/09 12:42:22;;;;;;;5.53;5.13;;;14.00;99.90;;;;;;4973981;28;20457;-68
2024/02/09 12:44:51;;;;;;;5.07;4.73;;;13.90;99.90;;;;;;4974533;28;20206;-67
2024/02/09 12:47:17;;;;;;;5.90;4.80;;;13.90;99.90;;;;;;4991783;28;20934;-66
2024/02/09 12:49:43;;;;;;;6.27;5.87;;;13.90;99.90;;;;;;4993017;28;20493;-68
2024/02/09 12:52:14;;;;;;;5.80;5.17;;;13.90;99.90;;;;;;4991894;28;20907;-68
2024/02/09 12:54:40;;;;;;;5.27;4.83;;;14.00;99.90;;;;;;4990826;28;20229;-68
2024/02/09 12:57:08;;;;;;;5.63;5.17;;;14.00;99.90;;;;;;4992393;28;20487;-68
2024/02/09 12:59:34;;;;;;;5.20;4.90;;;14.00;99.90;;;;;;4991363;28;20562;-67
2024/02/09 13:02:04;;;;;;;5.63;5.33;;;13.90;99.90;;;;;;4992212;28;20419;-67
2024/02/09 13:04:31;;;;;;;6.17;5.87;;;13.90;99.90;;;;;;4992090;28;20398;-66
2024/02/09 13:06:57;;;;;;;6.23;5.73;;;13.90;99.90;;;;;;4992072;28;20422;-67
2024/02/09 13:09:23;;;;;;;5.60;5.30;;;13.90;99.90;;;;;;4990782;28;20435;-67
2024/02/09 13:11:52;;;;;;;4.30;4.00;;;13.90;99.90;;;;;;4991930;28;20458;-68
2024/02/09 13:14:23;;;;;;;4.90;4.70;;;13.90;99.90;;;;;;4989983;28;20181;-68
2024/02/09 13:16:49;;;;;;;6.20;5.70;;;13.90;99.90;;;;;;4988755;28;20821;-67
2024/02/09 13:19:18;;;;;;;4.70;4.40;;;13.80;99.90;;;;;;4976487;28;20439;-68
2024/02/09 13:21:55;;;;;;;4.37;4.13;;;13.80;99.90;;;;;;4991395;28;20506;-67
2024/02/09 13:24:21;;;;;;;4.70;4.40;;;13.70;99.90;;;;;;4992124;28;20927;-67
2024/02/09 13:26:50;;;;;;;4.93;4.63;;;13.80;99.90;;;;;;4992649;28;20513;-67
2024/02/09 13:29:17;;;;;;;4.63;4.33;;;13.80;99.90;;;;;;4991822;28;20514;-67
2024/02/09 13:31:44;;;;;;;5.10;4.70;;;13.80;99.90;;;;;;4991133;28;20474;-67
2024/02/09 13:34:09;;;;;;;5.03;4.73;;;13.80;99.90;;;;;;4991805;28;20419;-69
2024/02/09 13:36:35;;;;;;;4.60;4.30;;;13.80;99.90;;;;;;4989943;28;20795;-68
2024/02/09 13:39:01;;;;;;;5.07;4.77;;;13.90;99.90;;;;;;4991488;28;20187;-69
2024/02/09 13:41:27;;;;;;;4.97;4.67;;;13.90;99.90;;;;;;4973664;28;20648;-67
2024/02/09 13:43:53;;;;;;;5.30;4.80;;;13.90;99.90;;;;;;4991805;28;20183;-68
2024/02/09 13:46:19;;;;;;;6.37;4.50;;;13.90;99.90;;;;;;4991103;28;20435;-66
2024/02/09 13:48:49;;;;;;;5.20;4.70;;;13.90;99.90;;;;;;4991139;28;20435;-67
2024/02/09 13:51:17;;;;;;;5.00;4.70;;;13.90;99.90;;;;;;4974352;28;20198;-67
2024/02/09 13:53:43;;;;;;;4.53;4.23;;;14.00;99.90;;;;;;4991309;28;20435;-67
2024/02/09 13:56:09;;;;;;;5.23;4.83;;;13.90;99.90;;;;;;4991818;28;20424;-69
2024/02/09 13:58:35;;;;;;;6.17;4.63;;;14.00;99.90;;;;;;4972937;28;20916;-72
2024/02/09 14:01:01;;;;;;;5.97;4.60;;;14.00;99.90;;;;;;4990903;28;20428;-68
2024/02/09 14:03:26;;;;;;;195.17;127.53;;;14.00;99.90;;;;;;4989456;28;20184;-67
2024/02/09 14:05:52;;;;;;;7.73;7.07;;;14.00;99.90;;;;;;4991287;28;20432;-68
2024/02/09 14:08:20;;;;;;;5.17;4.77;;;14.00;99.90;;;;;;4996663;28;20449;-68
2024/02/09 14:10:46;;;;;;;4.90;4.60;;;14.00;99.90;;;;;;4994795;28;20232;-67
2024/02/09 14:13:12;;;;;;;5.43;5.03;;;13.90;99.90;;;;;;4995550;28;20446;-68
2024/02/09 14:15:38;;;;;;;4.80;4.50;;;14.00;99.90;;;;;;4993569;28;20922;-68
2024/02/09 14:18:05;;;;;;;4.57;4.27;;;14.00;99.90;;;;;;4995002;28;20221;-68
2024/02/09 14:20:31;;;;;;;5.03;4.70;;;14.10;99.90;;;;;;4994966;28;20181;-67
2024/02/09 14:22:59;;;;;;;5.20;4.80;;;14.10;99.90;;;;;;4995341;28;20460;-67
2024/02/09 14:25:25;;;;;;;5.67;5.10;;;14.10;99.90;;;;;;4988926;28;20218;-67
2024/02/09 14:27:52;;;;;;;5.03;4.73;;;14.00;99.90;;;;;;4992852;28;20918;-68
2024/02/09 14:30:20;;;;;;;7.03;4.80;;;14.10;99.90;;;;;;4995835;28;20440;-68
2024/02/09 14:32:46;;;;;;;4.70;4.50;;;14.10;99.90;;;;;;4994977;28;20472;-68
2024/02/09 14:35:12;;;;;;;4.43;4.13;;;14.20;99.90;;;;;;4993704;28;20903;-68